Time;durP1;ratioP1;P1;durP2;ratioP2;P2;SDS_P1;SDS_P2;PMS_P1;PMS_P2;Temp;Humidity;BMP_temperature;BMP_pressure;BME280_temperature;BME280_humidity;BME280_pressure;Samples;Min_cycle;Max_cycle;Signal;HPM_P1;HPM_P2
2022/03/14 00:00:01;;;;;;;70.80;35.70;;;;;;;-0.29;44.79;100284.33;105975;1274;97837;-70
2022/03/14 00:02:49;;;;;;;68.80;34.40;;;;;;;-0.33;45.23;100285.40;106040;1274;97944;-72
2022/03/14 00:05:18;;;;;;;66.10;33.60;;;;;;;-0.37;44.96;100284.20;106034;1274;109562;-70
2022/03/14 00:07:48;;;;;;;64.90;32.00;;;;;;;-0.41;45.13;100282.68;106091;1274;98239;-71
2022/03/14 00:10:19;;;;;;;63.50;31.90;;;;;;;-0.43;45.18;100279.05;106012;1271;107738;-71
2022/03/14 00:12:57;;;;;;;58.90;33.40;;;;;;;-0.46;45.07;100281.15;106070;1274;97867;-73
2022/03/14 00:15:30;;;;;;;62.90;32.90;;;;;;;-0.50;45.09;100283.98;106076;1274;97858;-71
2022/03/14 00:18:01;;;;;;;62.50;34.00;;;;;;;-0.52;45.64;100282.95;106149;1274;111517;-71
2022/03/14 00:20:32;;;;;;;63.40;32.00;;;;;;;-0.54;45.47;100283.48;106084;1274;95246;-71
2022/03/14 00:23:00;;;;;;;65.70;33.40;;;;;;;-0.56;45.14;100285.75;105989;1274;107749;-71
2022/03/14 00:25:30;;;;;;;63.80;32.20;;;;;;;-0.59;45.42;100291.17;106100;1274;97877;-72
2022/03/14 00:27:58;;;;;;;61.40;31.60;;;;;;;-0.61;45.56;100289.64;106053;1274;97850;-71
2022/03/14 00:30:26;;;;;;;59.30;30.70;;;;;;;-0.62;45.65;100287.02;106079;1274;112135;-71
2022/03/14 00:32:54;;;;;;;58.30;31.30;;;;;;;-0.62;45.44;100288.41;106168;1274;97960;-70
2022/03/14 00:35:25;;;;;;;62.60;32.20;;;;;;;-0.63;45.57;100291.58;106117;1274;107772;-71
2022/03/14 00:37:58;;;;;;;63.00;31.40;;;;;;;-0.64;45.78;100285.48;106100;1274;98017;-68
2022/03/14 00:40:26;;;;;;;58.80;30.50;;;;;;;-0.66;45.78;100285.83;105970;1276;95359;-70
2022/03/14 00:43:00;;;;;;;57.40;31.00;;;;;;;-0.66;45.86;100288.45;106082;1276;111678;-70
2022/03/14 00:45:31;;;;;;;63.00;30.50;;;;;;;-0.66;45.69;100286.53;106146;1274;97889;-70
2022/03/14 00:48:02;;;;;;;60.80;29.70;;;;;;;-0.66;45.76;100286.71;106071;1274;107720;-70
2022/03/14 00:50:30;;;;;;;62.20;31.30;;;;;;;-0.66;45.74;100288.45;106054;1274;97831;-70
2022/03/14 00:52:58;;;;;;;55.60;28.80;;;;;;;-0.67;46.00;100283.23;106130;1274;97935;-69
2022/03/14 00:55:26;;;;;;;57.60;30.40;;;;;;;-0.66;45.87;100284.97;106145;1274;112062;-70
2022/03/14 00:57:55;;;;;;;57.10;30.30;;;;;;;-0.66;46.02;100282.52;106146;1274;97925;-72
2022/03/14 01:00:24;;;;;;;57.00;29.40;;;;;;;-0.66;45.81;100283.39;106110;1274;107717;-72
2022/03/14 01:02:52;;;;;;;55.40;30.40;;;;;;;-0.67;46.05;100286.19;106053;1274;97977;-70
2022/03/14 01:05:24;;;;;;;55.80;29.50;;;;;;;-0.69;46.06;100284.98;106056;1273;98510;-70
2022/03/14 01:07:52;;;;;;;55.50;30.40;;;;;;;-0.71;46.01;100283.24;106074;1274;110361;-70
2022/03/14 01:10:23;;;;;;;55.40;28.70;;;;;;;-0.72;45.85;100283.96;106067;1274;97869;-70
2022/03/14 01:12:52;;;;;;;61.30;30.40;;;;;;;-0.75;46.10;100279.80;106054;1274;107598;-70
2022/03/14 01:15:23;;;;;;;60.80;30.10;;;;;;;-0.79;46.09;100276.67;106028;1274;97916;-70
2022/03/14 01:17:51;;;;;;;61.80;31.70;;;;;;;-0.81;45.94;100282.80;106145;1274;95291;-69
2022/03/14 01:20:19;;;;;;;54.00;29.60;;;;;;;-0.86;46.15;100279.86;105993;1274;111486;-69
2022/03/14 01:22:47;;;;;;;57.70;29.40;;;;;;;-0.87;46.30;100284.06;106062;1273;97935;-69
2022/03/14 01:25:19;;;;;;;58.70;31.20;;;;;;;-0.90;46.14;100285.45;106045;1274;107540;-69
2022/03/14 01:27:47;;;;;;;60.20;29.80;;;;;;;-0.92;46.50;100284.60;105984;1274;97727;-72
2022/03/14 01:30:15;;;;;;;59.20;31.00;;;;;;;-0.92;46.42;100282.00;106041;1274;97870;-71
2022/03/14 01:32:43;;;;;;;55.90;30.60;;;;;;;-0.93;46.60;100280.60;106105;1274;111703;-70
2022/03/14 01:35:11;;;;;;;60.90;30.30;;;;;;;-0.94;46.67;100281.83;105932;1274;98025;-70
2022/03/14 01:37:39;;;;;;;60.40;30.40;;;;;;;-0.95;46.58;100284.45;105934;1274;107781;-70
2022/03/14 01:40:10;;;;;;;62.00;30.10;;;;;;;-0.97;46.69;100282.36;106020;1274;95296;-70
2022/03/14 01:42:38;;;;;;;60.90;30.70;;;;;;;-1.00;46.61;100281.85;106120;1274;97921;-70
2022/03/14 01:45:06;;;;;;;59.00;32.10;;;;;;;-1.01;46.71;100286.41;106101;1274;111001;-72
2022/03/14 01:47:34;;;;;;;64.60;32.80;;;;;;;-1.04;47.04;100283.98;106196;1274;97954;-70
2022/03/14 01:50:06;;;;;;;59.30;31.20;;;;;;;-1.07;46.81;100280.86;106039;1273;106761;-71
2022/03/14 01:52:35;;;;;;;59.30;31.70;;;;;;;-1.10;46.48;100284.70;106074;1274;97878;-71
2022/03/14 01:55:07;;;;;;;54.80;30.10;;;;;;;-1.13;46.65;100288.02;106029;1274;97902;-71
2022/03/14 01:57:40;;;;;;;60.20;31.30;;;;;;;-1.16;46.84;100284.55;106150;1274;111008;-70
2022/03/14 02:00:11;;;;;;;61.90;31.40;;;;;;;-1.19;46.77;100291.36;106104;1274;97874;-70
2022/03/14 02:02:39;;;;;;;59.40;30.40;;;;;;;-1.21;46.91;100289.80;106047;1274;107561;-70
2022/03/14 02:05:11;;;;;;;60.00;30.60;;;;;;;-1.25;47.04;100290.88;106153;1274;97876;-70
2022/03/14 02:07:43;;;;;;;61.10;30.50;;;;;;;-1.27;46.66;100290.36;106137;1274;97848;-70
2022/03/14 02:10:11;;;;;;;58.40;30.40;;;;;;;-1.30;46.82;100295.77;106013;1274;110312;-69
2022/03/14 02:12:43;;;;;;;62.00;32.00;;;;;;;-1.32;46.75;100299.10;106091;1274;97984;-71
2022/03/14 02:15:14;;;;;;;62.60;30.60;;;;;;;-1.33;47.23;100301.00;106087;1274;108899;-70
2022/03/14 02:17:45;;;;;;;57.90;29.50;;;;;;;-1.36;47.04;100305.54;105959;1274;98046;-70
2022/03/14 02:20:13;;;;;;;55.20;29.90;;;;;;;-1.40;46.80;100302.95;105897;1274;97931;-70
2022/03/14 02:22:41;;;;;;;59.60;31.50;;;;;;;-1.45;47.01;100304.54;106036;1274;111412;-71
2022/03/14 02:25:10;;;;;;;60.80;32.10;;;;;;;-1.47;47.21;100306.10;106028;1274;97863;-72
2022/03/14 02:27:38;;;;;;;65.30;30.90;;;;;;;-1.49;47.11;100307.48;106028;1274;108253;-72
2022/03/14 02:30:07;;;;;;;61.10;31.50;;;;;;;-1.51;47.29;100310.45;106153;1271;97902;-71
2022/03/14 02:32:41;;;;;;;51.80;27.00;;;;;;;-1.52;47.15;100309.59;106085;1274;97839;-70
2022/03/14 02:35:14;;;;;;;57.50;29.60;;;;;;;-1.54;47.30;100314.30;106048;1274;111418;-67
2022/03/14 02:37:44;;;;;;;55.60;30.40;;;;;;;-1.56;47.31;100321.43;106019;1274;97840;-70
2022/03/14 02:40:15;;;;;;;55.30;29.50;;;;;;;-1.59;47.23;100316.57;106022;1274;107740;-71
2022/03/14 02:42:43;;;;;;;56.40;30.80;;;;;;;-1.61;47.48;100314.48;106103;1274;98011;-71
2022/03/14 02:45:11;;;;;;;53.80;29.50;;;;;;;-1.62;47.71;100318.31;106065;1274;97956;-71
2022/03/14 02:47:39;;;;;;;54.90;29.20;;;;;;;-1.64;47.47;100321.11;106073;1274;111370;-72
2022/03/14 02:50:09;;;;;;;58.20;29.60;;;;;;;-1.65;47.75;100323.56;106145;1274;98000;-71
2022/03/14 02:52:37;;;;;;;55.50;30.10;;;;;;;-1.66;47.97;100331.90;106091;1274;108258;-72
2022/03/14 02:55:07;;;;;;;60.70;29.80;;;;;;;-1.68;47.95;100324.61;106135;1274;98024;-73
2022/03/14 02:57:35;;;;;;;55.10;28.90;;;;;;;-1.70;47.75;100327.73;106111;1274;97890;-72
2022/03/14 03:00:05;;;;;;;56.10;28.50;;;;;;;-1.73;47.88;100332.61;106091;1274;110943;-71
2022/03/14 03:02:37;;;;;;;56.70;28.70;;;;;;;-1.74;47.99;100331.56;105979;1274;97890;-70
2022/03/14 03:05:09;;;;;;;55.40;28.40;;;;;;;-1.75;48.03;100332.27;106015;1274;108040;-71
2022/03/14 03:07:39;;;;;;;57.40;30.00;;;;;;;-1.75;48.19;100335.91;106027;1274;97947;-70
2022/03/14 03:10:12;;;;;;;52.90;29.30;;;;;;;-1.76;47.98;100333.31;106040;1274;97967;-68
2022/03/14 03:12:41;;;;;;;50.10;27.50;;;;;;;-1.76;48.12;100337.66;106024;1274;111907;-71
2022/03/14 03:15:15;;;;;;;52.70;28.60;;;;;;;-1.77;47.72;100340.27;106123;1274;97926;-69
2022/03/14 03:17:47;;;;;;;53.70;27.20;;;;;;;-1.85;47.93;100337.15;106062;1274;108183;-71
2022/03/14 03:20:15;;;;;;;55.30;30.10;;;;;;;-1.89;48.07;100341.67;106067;1274;98082;-69
2022/03/14 03:22:47;;;;;;;51.60;26.10;;;;;;;-1.93;47.85;100339.42;106146;1274;97991;-69
2022/03/14 03:25:15;;;;;;;54.20;28.90;;;;;;;-1.96;48.09;100342.72;105993;1274;111389;-70
2022/03/14 03:27:45;;;;;;;52.30;27.20;;;;;;;-1.96;47.95;100344.98;106050;1274;95271;-70
2022/03/14 03:30:14;;;;;;;56.40;28.30;;;;;;;-1.95;48.01;100348.64;106059;1274;107343;-69
2022/03/14 03:32:44;;;;;;;55.30;28.20;;;;;;;-1.96;47.97;100352.63;105890;1274;98651;-70
2022/03/14 03:35:12;;;;;;;52.50;27.50;;;;;;;-2.00;47.84;100347.42;104007;1274;2938407;-71
2022/03/14 03:37:40;;;;;;;51.40;27.30;;;;;;;-2.03;48.07;100353.34;105862;1274;110167;-69
2022/03/14 03:40:12;;;;;;;50.80;28.40;;;;;;;-2.03;47.99;100357.16;105998;1274;97931;-71
2022/03/14 03:42:40;;;;;;;52.00;28.60;;;;;;;-2.04;48.08;100359.25;106021;1273;107738;-70
2022/03/14 03:45:10;;;;;;;52.60;28.20;;;;;;;-2.03;48.37;100362.02;106133;1273;97989;-69
2022/03/14 03:47:44;;;;;;;48.60;26.50;;;;;;;-2.02;48.06;100364.80;106219;1273;97939;-69
2022/03/14 03:50:16;;;;;;;51.80;27.20;;;;;;;-2.04;48.16;100366.90;106151;1273;111454;-70
2022/03/14 03:52:44;;;;;;;56.20;28.80;;;;;;;-2.05;48.55;100366.55;106041;1273;98044;-70
2022/03/14 03:55:12;;;;;;;53.00;28.60;;;;;;;-2.07;48.30;100365.51;106087;1273;107481;-70
2022/03/14 03:57:40;;;;;;;53.70;29.00;;;;;;;-2.08;48.57;100368.64;106087;1273;97857;-70
2022/03/14 04:00:12;;;;;;;49.00;28.90;;;;;;;-2.10;48.56;100366.73;106104;1273;97783;-70
2022/03/14 04:02:44;;;;;;;41.50;22.30;;;;;;;-2.11;48.43;100369.16;106077;1273;112321;-69
2022/03/14 04:05:18;;;;;;;56.40;28.90;;;;;;;-2.15;48.85;100368.81;106094;1273;97871;-70
2022/03/14 04:07:46;;;;;;;51.70;28.80;;;;;;;-2.15;48.77;100372.11;106031;1273;107565;-70
2022/03/14 04:10:15;;;;;;;53.00;28.20;;;;;;;-2.17;48.55;100373.32;106010;1274;97870;-71
2022/03/14 04:12:45;;;;;;;55.70;29.30;;;;;;;-2.19;48.69;100380.09;106092;1273;97980;-69
2022/03/14 04:15:16;;;;;;;56.00;29.40;;;;;;;-2.20;49.02;100382.88;106089;1273;111409;-70
2022/03/14 04:17:45;;;;;;;50.30;27.80;;;;;;;-2.24;48.53;100382.18;106115;1273;96502;-70
2022/03/14 04:20:12;;;;;;;54.90;30.30;;;;;;;-2.32;48.57;100386.35;106127;1273;107341;-69
2022/03/14 04:22:42;;;;;;;51.30;27.70;;;;;;;-2.39;48.74;100382.52;106170;1274;97944;-72
2022/03/14 04:25:11;;;;;;;50.60;28.60;;;;;;;-2.46;48.50;100389.29;106112;1273;97880;-71
2022/03/14 04:27:41;;;;;;;56.60;29.80;;;;;;;-2.48;49.03;100395.88;106072;1274;111360;-70
2022/03/14 04:30:11;;;;;;;61.60;29.80;;;;;;;-2.48;48.62;100397.27;106076;1273;97860;-70
2022/03/14 04:32:39;;;;;;;54.80;30.10;;;;;;;-2.47;48.74;100399.70;106017;1274;107823;-70
2022/03/14 04:35:10;;;;;;;60.90;31.80;;;;;;;-2.48;48.82;100397.63;106081;1273;97977;-69
2022/03/14 04:37:39;;;;;;;65.30;34.40;;;;;;;-2.48;48.97;100398.83;106181;1273;96617;-71
2022/03/14 04:40:14;;;;;;;71.30;35.60;;;;;;;-2.48;49.20;100402.83;106111;1272;111379;-70
2022/03/14 04:42:42;;;;;;;55.20;28.90;;;;;;;-2.48;48.79;100404.56;106002;1273;97927;-71
2022/03/14 04:45:10;;;;;;;66.30;33.60;;;;;;;-2.53;48.75;100404.89;105847;1274;107757;-70
2022/03/14 04:47:38;;;;;;;66.60;35.30;;;;;;;-2.59;48.78;100407.13;105970;1275;98098;-71
2022/03/14 04:50:10;;;;;;;68.10;33.80;;;;;;;-2.62;49.18;100409.55;105982;1274;98558;-67
2022/03/14 04:52:38;;;;;;;64.10;33.20;;;;;;;-2.62;49.04;100410.25;105877;1274;111976;-70
2022/03/14 04:55:07;;;;;;;61.20;34.10;;;;;;;-2.61;49.40;100408.00;106107;1274;97967;-69
2022/03/14 04:57:35;;;;;;;67.40;34.90;;;;;;;-2.61;49.20;100410.44;106156;1274;106954;-71
2022/03/14 05:00:08;;;;;;;62.30;34.10;;;;;;;-2.61;49.26;100410.95;106128;1274;95368;-72
2022/03/14 05:02:36;;;;;;;61.50;30.90;;;;;;;-2.62;49.45;100412.69;106165;1274;95382;-70
2022/03/14 05:05:04;;;;;;;57.50;31.60;;;;;;;-2.62;49.40;100411.13;106114;1274;111286;-70
2022/03/14 05:07:32;;;;;;;63.00;31.00;;;;;;;-2.61;49.43;100412.86;106083;1274;97835;-70
2022/03/14 05:10:06;;;;;;;62.00;32.80;;;;;;;-2.62;49.66;100418.08;106046;1274;107600;-69
2022/03/14 05:12:38;;;;;;;62.50;31.20;;;;;;;-2.64;49.57;100414.77;106076;1274;95255;-71
2022/03/14 05:15:06;;;;;;;56.00;30.30;;;;;;;-2.64;49.70;100418.77;106173;1274;97931;-70
2022/03/14 05:17:34;;;;;;;58.90;31.50;;;;;;;-2.63;49.91;100416.84;106134;1274;111341;-68
2022/03/14 05:20:08;;;;;;;61.20;32.30;;;;;;;-2.64;49.76;100422.74;106109;1274;97956;-69
2022/03/14 05:22:45;;;;;;;57.00;31.90;;;;;;;-2.64;49.88;100420.49;106117;1274;107768;-68
2022/03/14 05:25:13;;;;;;;56.80;31.30;;;;;;;-2.64;50.03;100420.84;106117;1274;97849;-69
2022/03/14 05:27:41;;;;;;;60.70;32.90;;;;;;;-2.63;50.09;100423.98;106064;1273;97000;-69
2022/03/14 05:30:12;;;;;;;58.90;31.30;;;;;;;-2.62;49.97;100421.71;106090;1273;111940;-69
2022/03/14 05:32:45;;;;;;;62.70;33.40;;;;;;;-2.62;49.99;100422.08;106112;1273;97942;-70
2022/03/14 05:35:15;;;;;;;58.30;32.50;;;;;;;-2.61;50.11;100424.31;106053;1273;107741;-68
2022/03/14 05:37:47;;;;;;;;;;;;;;;-2.60;50.26;100422.08;106112;1273;97758;-72
2022/03/14 05:40:20;;;;;;;57.30;31.60;;;;;;;-2.60;50.01;100420.16;106148;1273;95264;-72
2022/03/14 05:42:53;;;;;;;55.60;29.90;;;;;;;-2.58;49.99;100421.73;106158;1274;111011;-70
2022/03/14 05:45:21;;;;;;;57.30;30.60;;;;;;;-2.55;50.02;100422.78;106067;1273;97981;-75
2022/03/14 05:47:51;;;;;;;61.20;33.50;;;;;;;-2.52;50.15;100420.71;106071;1273;107641;-72
2022/03/14 05:50:24;;;;;;;58.50;32.10;;;;;;;-2.48;50.25;100423.67;106154;1273;97870;-72
2022/03/14 05:52:55;;;;;;;49.60;26.00;;;;;;;-2.45;50.18;100425.40;106192;1273;97873;-72
2022/03/14 05:55:23;;;;;;;67.00;33.10;;;;;;;-2.42;50.38;100426.98;106153;1273;111375;-71
2022/03/14 05:57:53;;;;;;;59.50;32.80;;;;;;;-2.39;50.34;100422.11;106104;1274;98549;-69
2022/03/14 06:00:23;;;;;;;70.10;34.70;;;;;;;-2.34;50.59;100426.66;106071;1273;107505;-70
2022/03/14 06:02:56;;;;;;;65.50;33.40;;;;;;;-2.30;50.63;100429.27;106074;1273;95977;-68
2022/03/14 06:05:24;;;;;;;59.00;32.10;;;;;;;-2.25;50.44;100431.02;105995;1273;97841;-71
2022/03/14 06:07:54;;;;;;;68.10;35.30;;;;;;;-2.21;50.57;100432.05;106082;1273;112074;-70
2022/03/14 06:10:22;;;;;;;62.50;32.00;;;;;;;-2.15;50.67;100429.30;106126;1273;97866;-69
2022/03/14 06:12:51;;;;;;;57.80;31.20;;;;;;;-2.09;50.54;100432.43;106133;1273;106153;-69
2022/03/14 06:15:21;;;;;;;54.10;29.90;;;;;;;-2.03;50.56;100432.77;106066;1273;96422;-69
2022/03/14 06:17:49;;;;;;;57.40;31.00;;;;;;;-1.97;50.55;100433.30;106096;1271;97889;-71
2022/03/14 06:20:17;;;;;;;59.50;32.00;;;;;;;-1.91;50.53;100432.09;105949;1273;110712;-71
2022/03/14 06:22:46;;;;;;;55.00;28.70;;;;;;;-1.85;51.03;100437.48;106091;1273;96668;-71
2022/03/14 06:25:18;;;;;;;55.80;29.40;;;;;;;-1.77;50.90;100440.27;105971;1273;107776;-70
2022/03/14 06:27:46;;;;;;;54.60;29.60;;;;;;;-1.70;51.16;100444.96;106083;1273;95261;-71
2022/03/14 06:30:15;;;;;;;59.30;31.80;;;;;;;-1.63;51.08;100450.87;106068;1273;96625;-71
2022/03/14 06:32:47;;;;;;;61.50;32.20;;;;;;;-1.55;51.56;100453.48;106055;1273;111823;-70
2022/03/14 06:35:17;;;;;;;58.40;31.10;;;;;;;-1.46;51.45;100454.69;106071;1273;97994;-70
2022/03/14 06:37:45;;;;;;;59.70;31.60;;;;;;;-1.37;51.15;100456.41;105942;1273;106453;-72
2022/03/14 06:40:15;;;;;;;62.40;33.10;;;;;;;-1.29;51.49;100455.36;106018;1273;95363;-70
2022/03/14 06:42:49;;;;;;;62.10;32.40;;;;;;;-1.22;51.64;100459.00;105976;1273;97927;-71
2022/03/14 06:45:23;;;;;;;58.70;31.40;;;;;;;-1.13;51.73;100455.86;106051;1273;111144;-71
2022/03/14 06:47:54;;;;;;;60.00;32.70;;;;;;;-1.04;51.85;100459.13;106093;1273;97839;-70
2022/03/14 06:50:28;;;;;;;57.10;30.30;;;;;;;-0.95;51.78;100456.84;106017;1273;107739;-71
2022/03/14 06:53:02;;;;;;;61.30;31.40;;;;;;;-0.86;51.91;100456.65;106099;1273;96021;-71
2022/03/14 06:55:30;;;;;;;53.20;31.10;;;;;;;-0.77;52.08;100454.52;105964;1273;97872;-71
2022/03/14 06:57:59;;;;;;;53.20;29.70;;;;;;;-0.67;52.21;100453.61;105989;1273;112052;-70
2022/03/14 07:00:29;;;;;;;52.80;28.50;;;;;;;-0.59;51.95;100456.54;106219;1273;97888;-69
2022/03/14 07:02:57;;;;;;;64.80;29.70;;;;;;;-0.50;51.84;100457.02;106103;1273;109251;-69
2022/03/14 07:05:26;;;;;;;52.80;29.80;;;;;;;-0.41;52.01;100456.27;106058;1273;97818;-69
2022/03/14 07:07:57;;;;;;;55.70;29.50;;;;;;;-0.31;52.06;100455.52;106064;1273;97854;-69
2022/03/14 07:10:26;;;;;;;53.20;28.10;;;;;;;-0.22;52.18;100459.83;106023;1273;111381;-69
2022/03/14 07:12:54;;;;;;;49.90;28.00;;;;;;;-0.13;52.23;100465.52;106016;1273;97850;-70
2022/03/14 07:15:25;;;;;;;55.00;30.20;;;;;;;-0.04;52.34;100466.00;105952;1273;107737;-70
2022/03/14 07:17:54;;;;;;;52.60;29.20;;;;;;;0.06;52.00;100470.81;105901;1275;97975;-71
2022/03/14 07:20:24;;;;;;;58.60;30.80;;;;;;;0.14;52.26;100469.88;106136;1273;97966;-72
2022/03/14 07:23:01;;;;;;;55.60;32.10;;;;;;;0.25;52.26;100471.73;105988;1274;111389;-73
2022/03/14 07:25:31;;;;;;;52.40;28.50;;;;;;;0.36;52.50;100467.45;106053;1273;97854;-71
2022/03/14 07:28:05;;;;;;;55.90;29.90;;;;;;;0.46;52.43;100471.38;106013;1273;107739;-72
2022/03/14 07:30:34;;;;;;;51.80;28.50;;;;;;;0.56;52.33;100469.38;106020;1273;96760;-72
2022/03/14 07:33:03;;;;;;;53.20;29.80;;;;;;;0.68;52.66;100466.98;106068;1273;97987;-72
2022/03/14 07:35:31;;;;;;;49.00;27.30;;;;;;;0.81;52.31;100470.19;106036;1273;111353;-71
2022/03/14 07:37:59;;;;;;;50.80;27.60;;;;;;;0.91;52.43;100470.79;105815;1273;97878;-70
2022/03/14 07:40:28;;;;;;;51.90;27.20;;;;;;;1.02;52.53;100472.59;106065;1273;106665;-70
2022/03/14 07:42:58;;;;;;;50.10;26.40;;;;;;;1.13;52.42;100473.16;106021;1273;97877;-69
2022/03/14 07:45:26;;;;;;;56.40;26.80;;;;;;;1.25;52.58;100473.55;105972;1274;97857;-70
2022/03/14 07:47:56;;;;;;;45.80;26.00;;;;;;;1.38;52.72;100476.73;105970;1274;111395;-71
2022/03/14 07:50:26;;;;;;;49.50;27.70;;;;;;;1.50;52.68;100474.46;105939;1274;98195;-69
2022/03/14 07:52:56;;;;;;;47.00;24.50;;;;;;;1.63;52.62;100475.71;105924;1274;107778;-69
2022/03/14 07:55:24;;;;;;;51.90;26.50;;;;;;;1.75;52.64;100473.98;105968;1274;95905;-70
2022/03/14 07:57:53;;;;;;;51.20;28.90;;;;;;;1.86;52.65;100475.73;106025;1274;97879;-70
2022/03/14 08:00:21;;;;;;;47.50;27.80;;;;;;;1.98;52.95;100473.66;106001;1274;111320;-73
2022/03/14 08:02:50;;;;;;;45.10;25.50;;;;;;;2.12;52.71;100476.42;105978;1273;97863;-72
2022/03/14 08:05:24;;;;;;;44.60;23.90;;;;;;;2.25;52.80;100471.15;105947;1273;108345;-71
2022/03/14 08:07:54;;;;;;;46.20;26.70;;;;;;;2.40;52.85;100473.17;105966;1274;98204;-72
2022/03/14 08:10:23;;;;;;;46.30;23.10;;;;;;;2.56;52.95;100476.77;106079;1273;96383;-71
2022/03/14 08:12:54;;;;;;;41.30;22.40;;;;;;;2.73;52.73;100477.69;106069;1274;110445;-72
2022/03/14 08:15:26;;;;;;;50.20;24.60;;;;;;;2.84;52.98;100477.33;105982;1274;97839;-71
2022/03/14 08:17:56;;;;;;;38.20;18.30;;;;;;;2.97;52.98;100478.50;106010;1273;107889;-69
2022/03/14 08:20:26;;;;;;;33.70;17.40;;;;;;;3.17;53.10;100477.94;106057;1273;97846;-71
2022/03/14 08:22:57;;;;;;;35.70;17.50;;;;;;;3.37;52.99;100474.93;106140;1273;97858;-72
2022/03/14 08:25:26;;;;;;;33.60;16.60;;;;;;;3.49;53.01;100476.60;106060;1273;111445;-71
2022/03/14 08:27:55;;;;;;;33.50;16.30;;;;;;;3.63;53.11;100480.88;106069;1273;97980;-71
2022/03/14 08:30:23;;;;;;;35.60;15.80;;;;;;;3.77;52.93;100476.02;105962;1274;107853;-69
2022/03/14 08:32:54;;;;;;;35.60;16.70;;;;;;;3.93;52.86;100479.70;105974;1274;97893;-74
2022/03/14 08:35:22;;;;;;;35.20;17.10;;;;;;;4.11;52.34;100484.90;105992;1274;97933;-71
2022/03/14 08:37:52;;;;;;;32.60;15.90;;;;;;;4.25;52.73;100476.33;106049;1273;111727;-71
2022/03/14 08:40:23;;;;;;;31.30;15.60;;;;;;;4.39;52.57;100472.66;106093;1274;97961;-73
2022/03/14 08:42:53;;;;;;;31.80;16.50;;;;;;;4.58;52.68;100470.77;106105;1274;106701;-72
2022/03/14 08:45:23;;;;;;;29.60;14.50;;;;;;;4.81;52.54;100469.48;105923;1274;95241;-70
2022/03/14 08:47:52;;;;;;;30.80;13.80;;;;;;;5.45;52.57;100465.79;105989;1273;96986;-72
2022/03/14 08:50:21;;;;;;;28.70;13.10;;;;;;;6.43;51.62;100463.16;105988;1273;111094;-72
2022/03/14 08:52:51;;;;;;;29.30;13.50;;;;;;;7.25;51.71;100460.69;106016;1274;95947;-71
2022/03/14 08:55:19;;;;;;;28.50;12.90;;;;;;;7.90;49.13;100461.23;106016;1273;107734;-71
2022/03/14 08:57:47;;;;;;;25.60;12.50;;;;;;;8.33;48.44;100457.41;106060;1273;97991;-71
2022/03/14 09:00:17;;;;;;;26.30;13.10;;;;;;;8.75;48.59;100458.52;106121;1273;97809;-70
2022/03/14 09:02:45;;;;;;;24.00;11.70;;;;;;;9.18;48.06;100457.04;106099;1273;113311;-72
2022/03/14 09:05:13;;;;;;;25.30;12.00;;;;;;;9.38;45.34;100462.33;106078;1273;96256;-72
2022/03/14 09:07:41;;;;;;;26.40;12.60;;;;;;;9.49;45.37;100457.23;105964;1273;107587;-71
2022/03/14 09:10:12;;;;;;;24.90;11.80;;;;;;;9.76;45.79;100462.55;105964;1273;97927;-72
2022/03/14 09:12:50;;;;;;;20.90;9.40;;;;;;;10.02;44.13;100460.42;105907;1273;97878;-71
2022/03/14 09:15:20;;;;;;;22.70;10.10;;;;;;;10.11;43.39;100462.30;105930;1273;112278;-70
2022/03/14 09:17:56;;;;;;;20.60;9.10;;;;;;;10.32;44.59;100459.69;105695;1273;96442;-71
2022/03/14 09:20:29;;;;;;;23.60;9.60;;;;;;;10.59;42.84;100463.23;105839;1275;107765;-71
2022/03/14 09:22:58;;;;;;;22.10;9.90;;;;;;;10.68;42.76;100461.30;105905;1273;97707;-72
2022/03/14 09:25:26;;;;;;;20.90;9.70;;;;;;;10.92;43.71;100459.91;105962;1273;97837;-72
2022/03/14 09:27:54;;;;;;;21.30;9.70;;;;;;;11.19;42.81;100459.07;105901;1273;112067;-69
2022/03/14 09:30:23;;;;;;;22.80;10.70;;;;;;;11.41;43.57;100464.95;105910;1273;98002;-72
2022/03/14 09:32:53;;;;;;;22.50;10.60;;;;;;;11.62;41.98;100460.84;105946;1273;107727;-71
2022/03/14 09:35:23;;;;;;;23.60;10.40;;;;;;;11.67;41.71;100461.46;105971;1273;97856;-70
2022/03/14 09:37:51;;;;;;;22.60;10.60;;;;;;;11.80;42.00;100456.63;106035;1274;97858;-70
2022/03/14 09:40:22;;;;;;;24.70;11.60;;;;;;;12.03;41.94;100454.71;106098;1273;111411;-70
2022/03/14 09:42:53;;;;;;;22.60;10.70;;;;;;;12.22;41.64;100450.95;106007;1274;95925;-70
2022/03/14 09:45:22;;;;;;;22.90;10.40;;;;;;;12.35;39.82;100442.75;106115;1273;107797;-69
2022/03/14 09:47:54;;;;;;;21.40;10.20;;;;;;;12.43;39.91;100442.30;106052;1273;95780;-69
2022/03/14 09:50:30;;;;;;;20.70;9.70;;;;;;;12.64;39.76;100440.70;106066;1273;98019;-71
2022/03/14 09:53:03;;;;;;;23.20;10.40;;;;;;;12.81;39.69;100440.61;106084;1273;110620;-71
2022/03/14 09:55:35;;;;;;;24.70;11.30;;;;;;;12.94;39.15;100437.83;106166;1273;95837;-69
2022/03/14 09:58:03;;;;;;;19.20;8.40;;;;;;;13.05;39.92;100435.42;106087;1273;107721;-72
2022/03/14 10:00:32;;;;;;;21.20;10.00;;;;;;;13.17;39.73;100433.77;106167;1273;97734;-71
2022/03/14 10:03:03;;;;;;;21.20;9.00;;;;;;;13.24;39.65;100433.73;106181;1273;97883;-68
2022/03/14 10:05:32;;;;;;;20.40;9.50;;;;;;;13.31;39.69;100434.77;106123;1273;111335;-69
2022/03/14 10:08:01;;;;;;;20.70;9.00;;;;;;;13.35;39.70;100432.35;106026;1274;97925;-69
2022/03/14 10:10:30;;;;;;;19.60;7.70;;;;;;;13.46;39.43;100434.38;106103;1273;107629;-71
2022/03/14 10:13:00;;;;;;;19.80;8.60;;;;;;;13.46;37.99;100436.84;106045;1273;97974;-70
2022/03/14 10:15:28;;;;;;;23.00;9.70;;;;;;;13.38;37.79;100437.48;106008;1274;95272;-73
2022/03/14 10:17:57;;;;;;;20.30;8.70;;;;;;;13.33;38.30;100435.45;106179;1273;111327;-72
2022/03/14 10:20:25;;;;;;;18.90;8.20;;;;;;;13.35;38.22;100437.69;106073;1274;97865;-70
2022/03/14 10:23:00;;;;;;;19.60;8.60;;;;;;;13.32;36.58;100438.42;106035;1275;107769;-71
2022/03/14 10:25:28;;;;;;;20.10;8.60;;;;;;;13.11;35.56;100441.61;106027;1273;96571;-70
2022/03/14 10:28:00;;;;;;;19.20;8.30;;;;;;;12.94;36.33;100435.71;105992;1275;97963;-69
2022/03/14 10:30:33;;;;;;;17.30;7.20;;;;;;;12.91;36.83;100441.92;106098;1273;111440;-69
2022/03/14 10:33:07;;;;;;;18.90;7.60;;;;;;;13.08;37.21;100441.11;106033;1273;96473;-70
2022/03/14 10:35:40;;;;;;;18.50;8.20;;;;;;;13.26;37.60;100434.84;106056;1274;109206;-71
2022/03/14 10:38:13;;;;;;;17.90;7.20;;;;;;;13.39;37.34;100433.85;105837;1273;97854;-69
2022/03/14 10:40:44;;;;;;;19.20;7.90;;;;;;;13.36;35.85;100436.72;106045;1273;98037;-69
2022/03/14 10:43:29;;;;;;;19.20;7.40;;;;;;;13.42;36.89;100435.30;106013;1274;111371;-70
2022/03/14 10:45:59;;;;;;;15.90;7.10;;;;;;;13.55;37.39;100434.69;106077;1273;95294;-70
2022/03/14 10:48:38;;;;;;;21.70;8.40;;;;;;;13.64;34.98;100436.28;106111;1273;106704;-71
2022/03/14 10:51:15;;;;;;;19.70;8.10;;;;;;;13.43;34.64;100433.30;106078;1273;97997;-70
2022/03/14 10:53:49;;;;;;;16.80;7.60;;;;;;;13.42;35.24;100440.30;106043;1274;98061;-71
2022/03/14 10:56:26;;;;;;;18.80;8.30;;;;;;;13.43;35.15;100436.33;106073;1273;111013;-68
2022/03/14 10:58:58;;;;;;;19.50;8.40;;;;;;;13.42;34.22;100434.56;106129;1273;97906;-68
2022/03/14 11:01:26;;;;;;;17.80;8.00;;;;;;;13.26;32.97;100431.48;106011;1273;107482;-69
2022/03/14 11:03:59;;;;;;;17.80;7.40;;;;;;;13.02;32.72;100429.37;106095;1273;97948;-70
2022/03/14 11:06:27;;;;;;;18.80;7.70;;;;;;;12.96;34.05;100424.21;106095;1273;97948;-71
2022/03/14 11:08:59;;;;;;;18.30;8.40;;;;;;;13.08;34.56;100419.02;106116;1273;112124;-70
2022/03/14 11:11:27;;;;;;;17.70;6.80;;;;;;;13.22;33.53;100421.56;106159;1273;97884;-71
2022/03/14 11:13:56;;;;;;;17.90;6.90;;;;;;;13.27;33.35;100417.86;105917;1273;107749;-72